createdAt,value
2022-12-18T00:02:17.851Z,57.17
2022-12-18T00:04:45.177Z,54.97
2022-12-18T00:07:12.480Z,57.53
2022-12-18T00:09:40.644Z,56.92
2022-12-18T00:14:43.352Z,56.58
2022-12-18T00:17:10.654Z,59.33
2022-12-18T00:19:37.952Z,58.00
2022-12-18T00:22:06.056Z,56.67
2022-12-18T00:24:33.404Z,58.53
2022-12-18T00:27:00.738Z,53.63
2022-12-18T00:29:28.148Z,55.70
2022-12-18T00:31:55.530Z,52.72
2022-12-18T00:34:22.926Z,57.08
2022-12-18T00:36:50.246Z,56.80
2022-12-18T00:39:19.854Z,59.42
2022-12-18T00:42:06.262Z,51.47
2022-12-18T00:44:33.615Z,52.33
2022-12-18T00:47:00.964Z,52.50
2022-12-18T00:49:28.380Z,55.60
2022-12-18T00:51:55.920Z,56.10
2022-12-18T00:54:23.300Z,49.53
2022-12-18T00:56:51.015Z,56.22
2022-12-18T00:59:21.586Z,52.00
2022-12-18T01:01:49.369Z,54.72
2022-12-18T01:04:17.667Z,55.28
2022-12-18T01:06:45.123Z,53.30
2022-12-18T01:09:12.786Z,56.90
2022-12-18T01:11:40.687Z,53.90
2022-12-18T01:14:08.189Z,54.85
2022-12-18T01:16:37.002Z,54.17
2022-12-18T01:19:04.565Z,55.90
2022-12-18T01:21:31.954Z,57.00
2022-12-18T01:23:59.583Z,55.47
2022-12-18T01:26:28.397Z,56.00
2022-12-18T01:28:57.334Z,55.03
2022-12-18T01:31:28.740Z,53.85
2022-12-18T01:33:57.305Z,56.38
2022-12-18T01:36:31.295Z,53.70
2022-12-18T01:39:01.487Z,52.28
2022-12-18T01:41:51.104Z,45.92
2022-12-18T01:44:56.629Z,49.13
2022-12-18T01:47:40.269Z,51.10
2022-12-18T01:50:24.258Z,52.05
2022-12-18T01:53:09.042Z,52.92
2022-12-18T01:55:52.594Z,52.10
2022-12-18T01:58:36.839Z,52.60
2022-12-18T02:01:04.225Z,51.75
2022-12-18T02:03:31.680Z,53.28
2022-12-18T02:06:16.599Z,51.72
2022-12-18T02:08:46.891Z,53.45
2022-12-18T02:11:23.171Z,53.92
2022-12-18T02:14:00.914Z,53.28
2022-12-18T02:16:57.972Z,50.38
2022-12-18T02:19:34.532Z,49.35
2022-12-18T02:22:13.703Z,50.78
2022-12-18T02:25:16.321Z,52.67
2022-12-18T02:27:46.888Z,50.03
2022-12-18T02:30:14.442Z,53.20
2022-12-18T02:32:44.993Z,53.30
2022-12-18T02:35:18.561Z,45.97
2022-12-18T02:37:47.308Z,50.78
2022-12-18T02:40:16.024Z,53.10
2022-12-18T02:42:43.545Z,51.63
2022-12-18T02:45:11.310Z,50.40
2022-12-18T02:47:43.602Z,49.97
2022-12-18T02:50:28.257Z,50.42
2022-12-18T02:53:41.212Z,48.75
2022-12-18T02:56:18.244Z,46.63
2022-12-18T02:58:51.769Z,47.35
2022-12-18T03:01:32.946Z,47.00
2022-12-18T03:04:05.728Z,42.78
2022-12-18T03:09:19.060Z,44.30
2022-12-18T03:12:12.908Z,40.57
2022-12-18T03:14:42.198Z,41.72
2022-12-18T03:17:12.137Z,40.70
2022-12-18T03:19:42.886Z,43.13
2022-12-18T03:22:11.647Z,43.85
2022-12-18T03:24:40.631Z,42.53
2022-12-18T03:27:12.179Z,42.25
2022-12-18T03:30:08.502Z,43.47
2022-12-18T03:32:50.358Z,41.47
2022-12-18T03:35:22.622Z,40.10
2022-12-18T03:37:50.076Z,43.72
2022-12-18T03:40:17.538Z,40.88
2022-12-18T03:42:53.874Z,39.65
2022-12-18T03:45:29.895Z,39.72
2022-12-18T03:48:12.818Z,39.58
2022-12-18T03:53:16.591Z,39.58
2022-12-18T03:55:45.548Z,38.45
2022-12-18T03:58:15.835Z,38.15
2022-12-18T04:00:43.706Z,39.00
2022-12-18T04:03:12.435Z,41.85
2022-12-18T04:05:40.283Z,40.17
2022-12-18T04:08:07.744Z,40.92
2022-12-18T04:10:36.326Z,41.28
2022-12-18T04:13:03.647Z,39.38
2022-12-18T04:15:31.099Z,40.08
2022-12-18T04:17:58.525Z,38.92
2022-12-18T04:20:25.937Z,40.42
2022-12-18T04:22:53.274Z,37.85
2022-12-18T04:25:20.653Z,38.95
2022-12-18T04:27:48.135Z,37.47
2022-12-18T04:30:15.600Z,37.70
2022-12-18T04:32:46.505Z,36.20
2022-12-18T04:35:16.661Z,35.53
2022-12-18T04:37:44.063Z,36.10
2022-12-18T04:40:12.196Z,35.83
2022-12-18T04:42:41.297Z,34.47
2022-12-18T04:45:09.579Z,30.85
2022-12-18T04:47:37.208Z,33.55
2022-12-18T04:50:06.757Z,32.42
2022-12-18T04:52:36.916Z,34.95
2022-12-18T04:55:04.426Z,34.63
2022-12-18T04:57:31.902Z,35.15
2022-12-18T04:59:59.247Z,34.30
2022-12-18T05:02:26.698Z,34.35
2022-12-18T05:04:54.183Z,32.85
2022-12-18T05:07:21.730Z,32.72
2022-12-18T05:09:49.047Z,32.45
2022-12-18T05:12:17.947Z,33.05
2022-12-18T05:14:45.252Z,32.58
2022-12-18T05:17:12.673Z,30.90
2022-12-18T05:19:40.088Z,32.30
2022-12-18T05:22:07.607Z,31.42
2022-12-18T05:24:34.957Z,33.55
2022-12-18T05:27:02.284Z,30.35
2022-12-18T05:29:29.884Z,32.35
2022-12-18T05:31:57.521Z,31.48
2022-12-18T05:34:26.244Z,30.67
2022-12-18T05:36:53.590Z,30.58
2022-12-18T05:39:21.590Z,30.63
2022-12-18T05:41:50.224Z,31.38
2022-12-18T05:44:18.229Z,31.00
2022-12-18T05:46:45.675Z,30.55
2022-12-18T05:49:15.608Z,28.92
2022-12-18T05:51:42.918Z,29.65
2022-12-18T05:54:32.036Z,31.08
2022-12-18T05:56:59.704Z,29.10
2022-12-18T05:59:27.122Z,29.13
2022-12-18T06:01:54.503Z,29.55
2022-12-18T06:04:21.919Z,29.15
2022-12-18T06:06:49.200Z,28.65
2022-12-18T06:09:16.888Z,27.70
2022-12-18T06:11:44.310Z,28.85
2022-12-18T06:14:14.179Z,26.70
2022-12-18T06:16:41.832Z,29.50
2022-12-18T06:19:09.164Z,29.05
2022-12-18T06:21:38.213Z,28.45
2022-12-18T06:24:05.809Z,27.60
2022-12-18T06:26:33.145Z,25.85
2022-12-18T06:29:00.650Z,26.67
2022-12-18T06:31:32.387Z,25.27
2022-12-18T06:34:00.104Z,26.87
2022-12-18T06:36:31.517Z,25.27
2022-12-18T06:38:59.035Z,25.77
2022-12-18T06:41:26.683Z,25.13
2022-12-18T06:43:59.431Z,24.55
2022-12-18T06:46:28.515Z,26.17
2022-12-18T06:48:55.914Z,24.75
2022-12-18T06:51:26.796Z,24.60
2022-12-18T06:53:54.104Z,24.77
2022-12-18T06:56:21.473Z,24.52
2022-12-18T06:58:51.928Z,24.33
2022-12-18T07:01:19.423Z,24.10
2022-12-18T07:03:47.386Z,25.95
2022-12-18T07:06:19.785Z,23.38
2022-12-18T07:08:48.197Z,24.25
2022-12-18T07:11:15.912Z,26.45
2022-12-18T07:13:43.506Z,25.70
2022-12-18T07:16:20.785Z,24.00
2022-12-18T07:18:49.886Z,23.80
2022-12-18T07:21:19.287Z,25.65
2022-12-18T07:23:49.083Z,24.73
2022-12-18T07:26:19.459Z,23.88
2022-12-18T07:28:46.773Z,21.20
2022-12-18T07:31:21.649Z,23.50
2022-12-18T07:33:51.770Z,23.13
2022-12-18T07:36:19.634Z,23.85
2022-12-18T07:38:49.452Z,21.45
2022-12-18T07:41:17.074Z,24.75
2022-12-18T07:43:44.794Z,24.55
2022-12-18T07:46:17.262Z,23.48
2022-12-18T07:48:46.228Z,22.67
2022-12-18T07:51:18.532Z,23.00
2022-12-18T07:53:45.933Z,22.50
2022-12-18T07:56:31.184Z,21.90
2022-12-18T07:58:59.939Z,22.58
2022-12-18T08:01:27.572Z,22.40
2022-12-18T08:03:55.107Z,21.33
2022-12-18T08:06:24.099Z,19.38
2022-12-18T08:08:56.547Z,20.75
2022-12-18T08:11:25.844Z,22.45
2022-12-18T08:13:53.958Z,22.50
2022-12-18T08:16:23.245Z,19.90
2022-12-18T08:18:53.590Z,20.25
2022-12-18T08:21:26.057Z,21.98
2022-12-18T08:23:54.987Z,22.35
2022-12-18T08:26:23.038Z,21.52
2022-12-18T08:28:51.168Z,19.58
2022-12-18T08:31:19.509Z,20.85
2022-12-18T08:33:49.680Z,20.85
2022-12-18T08:36:17.193Z,20.13
2022-12-18T08:38:44.525Z,22.00
2022-12-18T08:41:13.905Z,21.00
2022-12-18T08:44:00.528Z,19.15
2022-12-18T08:46:28.907Z,19.70
2022-12-18T08:48:57.043Z,21.05
2022-12-18T08:51:36.052Z,20.45
2022-12-18T08:54:03.494Z,20.65
2022-12-18T08:56:32.573Z,20.65
2022-12-18T08:58:59.995Z,20.63
2022-12-18T09:01:27.707Z,21.30
2022-12-18T09:03:55.245Z,20.27
2022-12-18T09:06:23.986Z,20.80
2022-12-18T09:08:51.419Z,19.75
2022-12-18T09:11:26.532Z,20.60
2022-12-18T09:13:55.033Z,20.52
2022-12-18T09:16:27.425Z,21.25
2022-12-18T09:19:02.754Z,20.50
2022-12-18T09:21:33.085Z,21.17
2022-12-18T09:24:09.132Z,20.95
2022-12-18T09:26:36.809Z,20.88
2022-12-18T09:29:05.457Z,21.98
2022-12-18T09:31:33.605Z,21.48
2022-12-18T09:34:03.088Z,20.75
2022-12-18T09:36:40.481Z,21.25
2022-12-18T09:39:08.969Z,22.08
2022-12-18T09:41:45.064Z,22.25
2022-12-18T09:44:34.033Z,19.80
2022-12-18T09:47:32.362Z,21.20
2022-12-18T09:50:05.592Z,21.45
2022-12-18T09:52:38.928Z,22.73
2022-12-18T09:55:38.400Z,19.95
2022-12-18T09:58:20.450Z,20.70
2022-12-18T10:00:47.782Z,20.13
2022-12-18T10:03:16.517Z,19.25
2022-12-18T10:05:51.087Z,22.05
2022-12-18T10:08:47.434Z,19.40
2022-12-18T10:11:29.619Z,21.33
2022-12-18T10:14:23.879Z,21.73
2022-12-18T10:16:56.953Z,21.52
2022-12-18T10:19:42.375Z,19.60
2022-12-18T10:22:18.181Z,22.15
2022-12-18T10:25:01.151Z,20.88
2022-12-18T10:29:56.040Z,20.38
2022-12-18T10:32:26.978Z,19.25
2022-12-18T10:35:00.542Z,19.65
2022-12-18T10:37:30.071Z,20.60
2022-12-18T10:40:22.048Z,21.52
2022-12-18T10:43:14.178Z,19.63
2022-12-18T10:45:42.318Z,18.80
2022-12-18T10:48:22.978Z,20.15
2022-12-18T10:53:42.030Z,20.20
2022-12-18T10:56:09.408Z,19.98
2022-12-18T10:58:38.751Z,20.30
2022-12-18T11:01:18.052Z,20.45
2022-12-18T11:04:01.857Z,21.33
2022-12-18T11:06:30.512Z,20.77
2022-12-18T11:09:12.319Z,21.83
2022-12-18T11:11:41.890Z,20.80
2022-12-18T11:14:19.392Z,21.55
2022-12-18T11:17:23.632Z,20.25
2022-12-18T11:19:43.008Z,19.92
2022-12-18T11:22:27.551Z,20.63
2022-12-18T11:25:34.915Z,21.55
2022-12-18T11:28:04.412Z,20.85
2022-12-18T11:30:33.961Z,22.13
2022-12-18T11:33:07.725Z,21.52
2022-12-18T11:35:44.281Z,21.45
2022-12-18T11:38:26.560Z,21.15
2022-12-18T11:41:49.088Z,20.98
2022-12-18T11:44:33.707Z,21.08
2022-12-18T11:47:14.968Z,20.90
2022-12-18T11:49:43.632Z,22.40
2022-12-18T11:52:29.346Z,21.83
2022-12-18T11:55:02.149Z,21.63
2022-12-18T12:00:14.108Z,21.50
2022-12-18T12:02:53.543Z,22.45
2022-12-18T12:05:47.258Z,20.90
2022-12-18T12:08:32.773Z,20.85
2022-12-18T12:11:15.222Z,21.45
2022-12-18T12:14:13.612Z,22.77
2022-12-18T12:16:55.639Z,20.90
2022-12-18T12:19:56.958Z,23.42
2022-12-18T12:22:30.278Z,20.90
2022-12-18T12:25:32.190Z,22.38
2022-12-18T12:28:36.917Z,22.02
2022-12-18T12:31:32.294Z,22.42
2022-12-18T12:34:19.303Z,22.38
2022-12-18T12:37:04.386Z,22.60
2022-12-18T12:39:50.119Z,22.00
2022-12-18T12:42:46.917Z,22.27
2022-12-18T12:45:27.430Z,22.60
2022-12-18T12:47:55.649Z,22.08
2022-12-18T12:50:24.578Z,22.38
2022-12-18T12:52:56.034Z,21.90
2022-12-18T12:55:28.167Z,23.02
2022-12-18T12:58:11.648Z,22.30
2022-12-18T13:03:26.313Z,22.75
2022-12-18T13:06:10.538Z,20.83
2022-12-18T13:08:59.981Z,23.15
2022-12-18T13:12:00.432Z,22.63
2022-12-18T13:14:39.198Z,23.60
2022-12-18T13:17:21.898Z,22.33
2022-12-18T13:19:57.457Z,23.58
2022-12-18T13:22:32.941Z,21.98
2022-12-18T13:25:00.368Z,21.80
2022-12-18T13:27:47.448Z,23.13
2022-12-18T13:30:33.232Z,22.02
2022-12-18T13:33:16.374Z,21.27
2022-12-18T13:35:46.909Z,22.15
2022-12-18T13:38:32.241Z,22.70
2022-12-18T13:41:29.217Z,22.55
2022-12-18T13:44:01.525Z,22.75
2022-12-18T13:46:51.020Z,22.27
2022-12-18T13:49:38.620Z,22.67
2022-12-18T13:52:21.976Z,21.88
2022-12-18T13:54:53.518Z,22.02
2022-12-18T13:57:33.150Z,22.35
2022-12-18T14:00:31.714Z,22.83
2022-12-18T14:03:00.437Z,22.00
2022-12-18T14:05:33.890Z,26.85
2022-12-18T14:08:11.539Z,22.83
2022-12-18T14:10:50.227Z,22.95
2022-12-18T14:13:26.152Z,23.88
2022-12-18T14:15:53.800Z,23.52
2022-12-18T14:18:27.011Z,23.00
2022-12-18T14:20:58.208Z,24.60
2022-12-18T14:23:41.105Z,23.58
2022-12-18T14:26:36.033Z,23.70
2022-12-18T14:29:23.628Z,23.15
2022-12-18T14:32:26.255Z,24.90
2022-12-18T14:34:55.218Z,23.17
2022-12-18T14:37:25.268Z,24.95
2022-12-18T14:40:08.652Z,24.42
2022-12-18T14:42:39.833Z,24.88
2022-12-18T14:45:43.052Z,25.10
2022-12-18T14:48:35.977Z,25.45
2022-12-18T14:51:11.174Z,24.98
2022-12-18T14:53:41.629Z,24.77
2022-12-18T14:56:36.320Z,21.42
2022-12-18T14:59:06.472Z,24.05
2022-12-18T15:01:39.299Z,24.67
2022-12-18T15:04:26.278Z,24.08
2022-12-18T15:07:11.516Z,25.30
2022-12-18T15:09:40.430Z,22.90
2022-12-18T15:12:41.696Z,23.85
2022-12-18T15:15:41.589Z,22.48
2022-12-18T15:18:09.655Z,23.65
2022-12-18T15:20:58.501Z,23.83
2022-12-18T15:23:28.803Z,22.58
2022-12-18T15:26:03.213Z,24.02
2022-12-18T15:28:51.124Z,24.02
2022-12-18T15:31:22.447Z,23.42
2022-12-18T15:33:56.430Z,23.02
2022-12-18T15:36:26.256Z,22.17
2022-12-18T15:39:04.645Z,22.75
2022-12-18T15:41:36.733Z,23.05
2022-12-18T15:44:16.761Z,23.08
2022-12-18T15:46:45.465Z,22.08
2022-12-18T15:49:12.818Z,23.35
2022-12-18T15:51:40.893Z,22.45
2022-12-18T15:54:12.621Z,21.20
2022-12-18T15:56:58.479Z,21.73
2022-12-18T15:59:26.060Z,23.55
2022-12-18T16:01:54.692Z,24.10
2022-12-18T16:04:24.623Z,21.52
2022-12-18T16:07:14.880Z,21.25
2022-12-18T16:09:40.469Z,22.02
2022-12-18T16:12:23.072Z,22.58
2022-12-18T16:14:51.611Z,22.13
2022-12-18T16:17:19.435Z,22.50
2022-12-18T16:19:46.892Z,20.65
2022-12-18T16:22:26.126Z,22.23
2022-12-18T16:24:54.431Z,21.42
2022-12-18T16:27:22.794Z,21.40
2022-12-18T16:29:55.094Z,21.23
2022-12-18T16:38:17.447Z,21.20
2022-12-18T16:41:04.908Z,22.40
2022-12-18T16:43:32.161Z,22.33
2022-12-18T16:46:00.860Z,22.63
2022-12-18T16:48:28.227Z,21.35
2022-12-18T16:51:05.341Z,22.17
2022-12-18T16:53:34.559Z,22.17
2022-12-18T16:56:02.724Z,23.13
2022-12-18T16:58:30.039Z,21.05
2022-12-18T17:00:57.399Z,21.98
2022-12-18T17:03:27.268Z,22.50
2022-12-18T17:05:54.842Z,22.83
2022-12-18T17:08:24.497Z,22.30
2022-12-18T17:11:06.742Z,22.40
2022-12-18T17:13:37.720Z,22.42
2022-12-18T17:16:08.128Z,20.83
2022-12-18T17:18:46.017Z,21.30
2022-12-18T17:21:16.693Z,22.63
2022-12-18T17:23:57.548Z,22.23
2022-12-18T17:26:27.276Z,22.92
2022-12-18T17:29:06.249Z,22.55
2022-12-18T17:31:42.129Z,23.70
2022-12-18T17:34:15.441Z,23.38
2022-12-18T17:36:51.754Z,23.33
2022-12-18T17:39:31.931Z,22.52
2022-12-18T17:42:03.925Z,23.38
2022-12-18T17:47:21.937Z,23.70
2022-12-18T17:49:52.095Z,23.08
2022-12-18T17:52:25.701Z,24.02
2022-12-18T17:57:34.573Z,22.90
2022-12-18T18:00:02.156Z,23.20
2022-12-18T18:02:32.370Z,23.23
2022-12-18T18:04:59.769Z,24.02
2022-12-18T18:07:30.238Z,24.02
2022-12-18T18:09:57.632Z,23.75
2022-12-18T18:12:44.829Z,25.40
2022-12-18T18:15:13.832Z,24.27
2022-12-18T18:17:41.271Z,23.65
2022-12-18T18:20:09.049Z,22.30
2022-12-18T18:22:36.326Z,24.00
2022-12-18T18:25:03.889Z,24.25
2022-12-18T18:27:38.519Z,24.77
2022-12-18T18:30:08.266Z,25.83
2022-12-18T18:32:39.651Z,25.92
2022-12-18T18:35:24.568Z,24.10
2022-12-18T18:38:23.211Z,26.53
2022-12-18T18:40:59.664Z,26.52
2022-12-18T18:43:27.089Z,27.00
2022-12-18T18:45:59.100Z,26.90
2022-12-18T18:48:27.585Z,28.00
2022-12-18T18:50:58.537Z,28.92
2022-12-18T18:53:25.990Z,28.65
2022-12-18T18:56:17.490Z,29.42
2022-12-18T18:58:41.182Z,27.23
2022-12-18T19:01:17.540Z,29.00
2022-12-18T19:03:45.924Z,29.15
2022-12-18T19:06:24.606Z,29.02
2022-12-18T19:08:56.149Z,29.90
2022-12-18T19:11:44.106Z,31.73
2022-12-18T19:14:15.004Z,29.65
2022-12-18T19:16:43.582Z,29.02
2022-12-18T19:19:11.684Z,32.42
2022-12-18T19:21:39.123Z,30.75
2022-12-18T19:24:11.915Z,29.52
2022-12-18T19:29:08.853Z,28.27
2022-12-18T19:31:37.464Z,30.30
2022-12-18T19:34:07.052Z,29.92
2022-12-18T19:36:36.278Z,30.85
2022-12-18T19:39:10.320Z,27.58
2022-12-18T19:41:37.640Z,28.77
2022-12-18T19:44:07.616Z,29.27
2022-12-18T19:46:35.790Z,31.50
2022-12-18T19:49:03.683Z,34.30
2022-12-18T19:51:32.397Z,32.88
2022-12-18T19:54:03.369Z,33.22
2022-12-18T19:56:33.148Z,31.15
2022-12-18T19:59:01.276Z,29.77
2022-12-18T20:01:35.174Z,31.70
2022-12-18T20:04:04.354Z,35.28
2022-12-18T20:06:37.088Z,33.78
2022-12-18T20:09:07.020Z,34.53
2022-12-18T20:11:41.046Z,34.28
2022-12-18T20:14:13.784Z,36.67
2022-12-18T20:16:41.857Z,34.00
2022-12-18T20:19:11.381Z,33.17
2022-12-18T20:21:38.881Z,33.33
2022-12-18T20:24:08.262Z,33.40
2022-12-18T20:26:38.413Z,36.00
2022-12-18T20:29:05.734Z,36.60
2022-12-18T20:31:33.322Z,38.10
2022-12-18T20:36:38.676Z,36.17
2022-12-18T20:39:12.259Z,37.50
2022-12-18T20:41:40.819Z,39.00
2022-12-18T20:44:22.893Z,36.33
2022-12-18T20:49:23.897Z,38.78
2022-12-18T20:51:58.195Z,39.70
2022-12-18T20:54:27.105Z,39.97
2022-12-18T20:56:54.703Z,39.15
2022-12-18T20:59:23.290Z,39.53
2022-12-18T21:01:52.279Z,41.53
2022-12-18T21:04:19.951Z,42.25
2022-12-18T21:06:52.385Z,41.75
2022-12-18T21:09:23.723Z,40.60
2022-12-18T21:12:12.400Z,41.13
2022-12-18T21:14:42.629Z,43.30
2022-12-18T21:17:10.339Z,43.83
2022-12-18T21:19:42.761Z,39.58
2022-12-18T21:22:10.899Z,39.20
2022-12-18T21:24:38.394Z,43.28
2022-12-18T21:27:05.821Z,41.10
2022-12-18T21:29:34.841Z,44.42
2022-12-18T21:32:03.394Z,43.83
2022-12-18T21:34:32.007Z,43.65
2022-12-18T21:37:00.696Z,45.15
2022-12-18T21:39:29.154Z,46.15
2022-12-18T21:42:15.147Z,40.63
2022-12-18T21:44:47.494Z,47.42
2022-12-18T21:47:22.560Z,44.13
2022-12-18T21:49:52.601Z,44.13
2022-12-18T21:52:23.878Z,45.63
2022-12-18T21:55:06.683Z,44.83
2022-12-18T21:57:37.676Z,42.92
2022-12-18T22:00:06.800Z,41.35
2022-12-18T22:02:34.536Z,42.92
2022-12-18T22:05:01.955Z,44.22
2022-12-18T22:07:29.382Z,42.60
2022-12-18T22:09:57.415Z,42.10
2022-12-18T22:12:39.794Z,41.80
2022-12-18T22:15:21.624Z,40.03
2022-12-18T22:17:50.857Z,42.65
2022-12-18T22:20:20.239Z,42.05
2022-12-18T22:22:52.772Z,42.47
2022-12-18T22:25:20.294Z,42.35
2022-12-18T22:28:09.254Z,41.05
2022-12-18T22:30:38.945Z,40.55
2022-12-18T22:33:07.483Z,41.08
2022-12-18T22:35:38.017Z,45.15
2022-12-18T22:38:07.940Z,43.63
2022-12-18T22:40:36.496Z,40.88
2022-12-18T22:43:03.954Z,40.92
2022-12-18T22:45:31.966Z,41.53
2022-12-18T22:48:14.207Z,41.60
2022-12-18T22:50:46.961Z,41.78
2022-12-18T23:01:33.189Z,44.20
2022-12-18T23:04:02.867Z,43.88
2022-12-18T23:06:30.468Z,44.75
2022-12-18T23:08:58.336Z,44.13
2022-12-18T23:11:30.302Z,44.97
2022-12-18T23:19:21.613Z,41.00
2022-12-18T23:21:55.242Z,42.75
2022-12-18T23:24:28.161Z,47.75
2022-12-18T23:27:01.419Z,48.85
2022-12-18T23:37:58.490Z,46.28
2022-12-18T23:40:34.272Z,43.65
2022-12-18T23:43:03.626Z,47.22
2022-12-18T23:45:33.058Z,49.80
2022-12-18T23:48:01.135Z,50.83
2022-12-18T23:50:31.615Z,47.45
2022-12-18T23:53:04.878Z,49.60
2022-12-18T23:55:40.569Z,50.78
2022-12-18T23:58:18.170Z,50.78
